Terminal Aerodrome Forecast
Issued by NWS

Home | Current Version | Previous Version | Graphics & Text | Print | Product List | Glossary On
Versions: 1 2 3 4 5 6 7 8 9 10 11 12 13 14 15
000
FTUS43 KBIS 191100
TAFJMS
TAF
KJMS 191123Z 1912/2012 28017G25KT P6SM BKN120
     FM191600 27020G28KT P6SM SKC
     FM200000 28011KT P6SM SKC
     FM200300 27004KT P6SM SKC
     FM200700 VRB03KT P6SM SKC=

USA.gov is the U.S. government's official web portal to all federal, state and local government web resources and services.